createdAt,value
2022-11-17T00:01:39.155Z,19.40
2022-11-17T00:04:09.546Z,19.40
2022-11-17T00:06:39.773Z,19.50
2022-11-17T00:09:19.000Z,19.40
2022-11-17T00:12:08.887Z,19.50
2022-11-17T00:14:42.171Z,19.50
2022-11-17T00:17:14.689Z,19.50
2022-11-17T00:20:23.239Z,19.50
2022-11-17T00:22:54.025Z,19.50
2022-11-17T00:25:24.577Z,19.50
2022-11-17T00:27:54.872Z,19.60
2022-11-17T00:30:50.793Z,19.60
2022-11-17T00:33:38.799Z,19.60
2022-11-17T00:36:09.291Z,19.60
2022-11-17T00:38:39.455Z,19.60
2022-11-17T00:41:09.643Z,19.60
2022-11-17T00:43:39.854Z,19.70
2022-11-17T00:46:10.061Z,19.70
2022-11-17T00:48:40.373Z,19.70
2022-11-17T00:51:10.550Z,19.70
2022-11-17T00:53:40.805Z,19.70
2022-11-17T00:56:11.020Z,19.70
2022-11-17T00:58:41.419Z,19.70
2022-11-17T01:01:11.997Z,19.70
2022-11-17T01:03:42.598Z,19.70
2022-11-17T01:06:15.532Z,19.70
2022-11-17T01:08:46.066Z,19.80
2022-11-17T01:11:18.668Z,19.80
2022-11-17T01:13:50.385Z,19.80
2022-11-17T01:16:21.728Z,19.80
2022-11-17T01:18:53.555Z,19.80
2022-11-17T01:21:28.663Z,19.90
2022-11-17T01:24:00.673Z,19.90
2022-11-17T01:26:33.526Z,19.90
2022-11-17T01:29:06.275Z,19.90
2022-11-17T01:31:41.445Z,19.90
2022-11-17T01:34:12.355Z,20.00
2022-11-17T01:37:03.101Z,20.00
2022-11-17T01:39:34.060Z,20.00
2022-11-17T01:42:19.955Z,20.00
2022-11-17T01:45:19.175Z,20.10
2022-11-17T01:47:56.273Z,20.10
2022-11-17T01:50:38.201Z,20.10
2022-11-17T01:53:19.973Z,20.10
2022-11-17T01:56:04.178Z,20.10
2022-11-17T01:58:38.574Z,20.10
2022-11-17T02:01:08.939Z,20.20
2022-11-17T02:03:41.567Z,20.10
2022-11-17T02:06:32.724Z,20.20
2022-11-17T02:09:05.377Z,20.20
2022-11-17T02:11:37.781Z,20.20
2022-11-17T02:14:08.858Z,20.20
2022-11-17T02:16:39.284Z,20.20
2022-11-17T02:19:11.355Z,20.20
2022-11-17T02:22:24.472Z,20.20
2022-11-17T02:25:15.838Z,20.30
2022-11-17T02:28:15.406Z,20.30
2022-11-17T02:31:13.042Z,20.30
2022-11-17T02:34:11.477Z,20.20
2022-11-17T02:36:59.487Z,20.20
2022-11-17T02:39:54.568Z,20.30
2022-11-17T02:42:50.758Z,20.30
2022-11-17T02:45:34.714Z,20.30
2022-11-17T02:48:10.521Z,20.30
2022-11-17T02:50:42.416Z,20.30
2022-11-17T02:53:13.649Z,20.30
2022-11-17T02:55:50.454Z,20.40
2022-11-17T02:58:24.159Z,20.40
2022-11-17T03:00:57.332Z,20.40
2022-11-17T03:03:55.222Z,20.40
2022-11-17T03:06:46.200Z,20.40
2022-11-17T03:09:23.307Z,20.40
2022-11-17T03:12:06.856Z,20.40
2022-11-17T03:15:04.817Z,20.40
2022-11-17T03:17:40.529Z,20.40
2022-11-17T03:20:14.801Z,20.50
2022-11-17T03:22:44.976Z,20.40
2022-11-17T03:25:21.381Z,20.40
2022-11-17T03:27:56.064Z,20.50
2022-11-17T03:30:28.544Z,20.50
2022-11-17T03:33:06.944Z,20.50
2022-11-17T03:35:43.949Z,20.50
2022-11-17T03:38:27.077Z,20.50
2022-11-17T03:41:01.517Z,20.50
2022-11-17T03:43:36.818Z,20.50
2022-11-17T03:46:15.999Z,20.50
2022-11-17T03:49:05.144Z,20.50
2022-11-17T03:51:35.572Z,20.60
2022-11-17T03:54:05.840Z,20.50
2022-11-17T03:57:02.673Z,20.60
2022-11-17T03:59:58.556Z,20.60
2022-11-17T04:02:29.918Z,20.60
2022-11-17T04:05:09.364Z,20.60
2022-11-17T04:07:49.593Z,20.60
2022-11-17T04:10:24.485Z,20.60
2022-11-17T04:13:14.191Z,20.60
2022-11-17T04:16:00.539Z,20.60
2022-11-17T04:18:30.696Z,20.60
2022-11-17T04:21:00.987Z,20.60
2022-11-17T04:23:31.282Z,20.60
2022-11-17T04:26:19.216Z,20.70
2022-11-17T04:28:51.920Z,20.70
2022-11-17T04:31:31.660Z,20.70
2022-11-17T04:34:09.603Z,20.70
2022-11-17T04:36:47.715Z,20.70
2022-11-17T04:39:18.944Z,20.70
2022-11-17T04:42:06.489Z,20.70
2022-11-17T04:44:36.759Z,20.70
2022-11-17T04:47:08.571Z,20.70
2022-11-17T04:49:38.819Z,20.80
2022-11-17T04:52:09.113Z,20.80
2022-11-17T04:54:39.362Z,20.80
2022-11-17T04:57:09.633Z,20.80
2022-11-17T04:59:39.847Z,20.80
2022-11-17T05:02:10.050Z,20.80
2022-11-17T05:04:58.126Z,20.80
2022-11-17T05:07:29.622Z,20.80
2022-11-17T05:09:59.902Z,20.80
2022-11-17T05:12:48.197Z,20.80
2022-11-17T05:15:38.183Z,20.80
2022-11-17T05:18:08.406Z,20.80
2022-11-17T05:20:38.553Z,20.80
2022-11-17T05:23:26.600Z,20.90
2022-11-17T05:25:56.911Z,20.90
2022-11-17T05:28:27.463Z,20.90
2022-11-17T05:30:57.675Z,20.90
2022-11-17T05:33:27.957Z,20.90
2022-11-17T05:35:58.297Z,20.90
2022-11-17T05:38:29.038Z,20.90
2022-11-17T05:41:01.231Z,20.90
2022-11-17T05:43:31.570Z,20.90
2022-11-17T05:46:02.205Z,20.90
2022-11-17T05:48:32.610Z,21.00
2022-11-17T05:51:03.709Z,21.00
2022-11-17T05:53:34.737Z,21.00
2022-11-17T05:56:21.030Z,21.00
2022-11-17T05:58:55.240Z,21.00
2022-11-17T06:01:25.881Z,21.00
2022-11-17T06:04:00.333Z,21.00
2022-11-17T06:06:30.935Z,21.00
2022-11-17T06:09:01.958Z,21.10
2022-11-17T06:11:34.911Z,21.10
2022-11-17T06:14:05.483Z,21.10
2022-11-17T06:16:39.747Z,21.10
2022-11-17T06:19:16.112Z,21.10
2022-11-17T06:22:10.451Z,21.10
2022-11-17T06:24:36.957Z,21.10
2022-11-17T06:27:08.448Z,21.10
2022-11-17T06:29:43.871Z,21.20
2022-11-17T06:32:19.261Z,21.20
2022-11-17T06:34:56.030Z,21.20
2022-11-17T06:37:27.836Z,21.20
2022-11-17T06:40:15.020Z,21.20
2022-11-17T06:43:02.994Z,21.20
2022-11-17T06:45:38.124Z,21.20
2022-11-17T06:48:09.267Z,21.30
2022-11-17T06:50:39.898Z,21.20
2022-11-17T06:53:12.806Z,21.30
2022-11-17T06:55:43.525Z,21.30
2022-11-17T06:58:13.735Z,21.30
2022-11-17T07:00:44.147Z,21.30
2022-11-17T07:03:14.429Z,21.30
2022-11-17T07:05:44.697Z,21.30
2022-11-17T07:08:16.008Z,21.30
2022-11-17T07:10:49.285Z,21.30
2022-11-17T07:13:19.749Z,21.30
2022-11-17T07:15:51.838Z,21.30
2022-11-17T07:18:22.758Z,21.30
2022-11-17T07:20:53.018Z,21.30
2022-11-17T07:23:23.304Z,21.30
2022-11-17T07:25:55.591Z,21.30
2022-11-17T07:28:25.955Z,21.30
2022-11-17T07:30:56.729Z,21.30
2022-11-17T07:33:26.935Z,21.30
2022-11-17T07:35:57.787Z,21.30
2022-11-17T07:38:28.091Z,21.30
2022-11-17T07:41:01.906Z,21.30
2022-11-17T07:43:32.419Z,21.30
2022-11-17T07:46:10.097Z,21.30
2022-11-17T07:48:41.875Z,21.30
2022-11-17T07:51:12.447Z,21.30
2022-11-17T07:53:42.715Z,21.30
2022-11-17T07:56:14.272Z,21.30
2022-11-17T07:58:44.490Z,21.30
2022-11-17T08:01:19.589Z,21.30
2022-11-17T08:03:50.113Z,21.30
2022-11-17T08:06:20.436Z,21.30
2022-11-17T08:09:02.681Z,21.40
2022-11-17T08:11:34.196Z,21.30
2022-11-17T08:14:04.597Z,21.30
2022-11-17T08:16:34.900Z,21.30
2022-11-17T08:19:07.881Z,21.30
2022-11-17T08:21:40.173Z,21.30
2022-11-17T08:24:10.858Z,21.30
2022-11-17T08:26:41.042Z,21.30
2022-11-17T08:29:12.493Z,21.30
2022-11-17T08:31:47.705Z,21.30
2022-11-17T08:34:18.196Z,21.30
2022-11-17T08:36:48.480Z,21.30
2022-11-17T08:39:18.704Z,21.30
2022-11-17T08:41:48.918Z,21.30
2022-11-17T08:44:19.156Z,21.30
2022-11-17T08:46:50.670Z,21.30
2022-11-17T08:49:20.905Z,21.30
2022-11-17T08:51:51.496Z,21.50
2022-11-17T08:54:21.778Z,21.40
2022-11-17T08:56:52.185Z,21.40
2022-11-17T08:59:22.433Z,21.40
2022-11-17T09:01:52.628Z,21.40
2022-11-17T09:04:22.902Z,21.40
2022-11-17T09:06:53.107Z,21.40
2022-11-17T09:09:23.536Z,21.40
2022-11-17T09:11:54.361Z,21.40
2022-11-17T09:14:24.592Z,21.40
2022-11-17T09:16:55.490Z,21.40
2022-11-17T09:19:25.986Z,21.40
2022-11-17T09:21:56.320Z,21.40
2022-11-17T09:24:28.299Z,21.40
2022-11-17T09:26:59.251Z,21.50
2022-11-17T09:29:29.429Z,21.50
2022-11-17T09:31:59.743Z,21.50
2022-11-17T09:34:30.981Z,21.50
2022-11-17T09:37:01.353Z,21.50
2022-11-17T09:39:31.606Z,21.50
2022-11-17T09:42:03.104Z,21.60
2022-11-17T09:44:44.274Z,21.60
2022-11-17T09:47:42.903Z,21.60
2022-11-17T09:50:27.736Z,21.70
2022-11-17T09:53:40.198Z,21.70
2022-11-17T09:56:13.894Z,21.70
2022-11-17T09:59:00.728Z,21.70
2022-11-17T10:01:32.468Z,21.80
2022-11-17T10:04:03.132Z,21.80
2022-11-17T10:06:34.408Z,21.80
2022-11-17T10:09:37.224Z,21.80
2022-11-17T10:12:27.678Z,21.80
2022-11-17T10:14:58.046Z,21.90
2022-11-17T10:17:28.229Z,21.80
2022-11-17T10:19:58.450Z,21.90
2022-11-17T10:22:39.197Z,21.90
2022-11-17T10:25:25.165Z,21.90
2022-11-17T10:27:57.148Z,21.90
2022-11-17T10:30:27.844Z,21.90
2022-11-17T10:33:00.793Z,21.90
2022-11-17T10:35:36.720Z,21.90
2022-11-17T10:38:28.340Z,22.00
2022-11-17T10:41:00.818Z,22.00
2022-11-17T10:43:37.821Z,22.00
2022-11-17T10:46:18.278Z,22.00
2022-11-17T10:49:19.440Z,22.00
2022-11-17T10:52:16.229Z,22.30
2022-11-17T10:54:46.861Z,22.10
2022-11-17T10:57:25.127Z,22.10
2022-11-17T11:00:01.917Z,22.00
2022-11-17T11:02:39.199Z,22.00
2022-11-17T11:05:19.822Z,22.00
2022-11-17T11:07:50.315Z,21.90
2022-11-17T11:10:37.443Z,21.90
2022-11-17T11:13:39.426Z,21.90
2022-11-17T11:16:11.805Z,21.80
2022-11-17T11:18:42.161Z,21.70
2022-11-17T11:21:21.036Z,21.70
2022-11-17T11:24:18.156Z,21.70
2022-11-17T11:27:03.038Z,21.70
2022-11-17T11:30:01.562Z,21.70
2022-11-17T11:32:38.592Z,21.60
2022-11-17T11:35:10.977Z,21.60
2022-11-17T11:38:17.418Z,21.60
2022-11-17T11:41:11.954Z,21.60
2022-11-17T11:43:47.638Z,21.50
2022-11-17T11:46:32.810Z,21.50
2022-11-17T11:49:28.252Z,21.50
2022-11-17T11:51:58.478Z,21.50
2022-11-17T11:54:49.415Z,21.40
2022-11-17T11:57:32.835Z,21.40
2022-11-17T12:00:07.939Z,21.40
2022-11-17T12:02:45.738Z,21.40
2022-11-17T12:05:18.151Z,21.40
2022-11-17T12:08:21.655Z,21.30
2022-11-17T12:11:47.673Z,21.30
2022-11-17T12:14:22.227Z,21.30
2022-11-17T12:17:01.930Z,21.30
2022-11-17T12:19:52.321Z,21.20
2022-11-17T12:22:34.534Z,21.30
2022-11-17T12:25:24.812Z,21.20
2022-11-17T12:27:56.331Z,21.20
2022-11-17T12:30:47.777Z,21.20
2022-11-17T12:33:18.056Z,21.20
2022-11-17T12:35:48.345Z,21.10
2022-11-17T12:38:18.505Z,21.10
2022-11-17T12:40:53.719Z,21.10
2022-11-17T12:43:29.461Z,21.10
2022-11-17T12:46:02.560Z,21.10
2022-11-17T12:48:39.669Z,21.10
2022-11-17T12:51:18.882Z,21.10
2022-11-17T12:54:01.438Z,21.00
2022-11-17T12:56:53.960Z,21.00
2022-11-17T12:59:39.387Z,21.00
2022-11-17T13:02:39.830Z,20.90
2022-11-17T13:05:22.857Z,20.90
2022-11-17T13:07:53.274Z,20.90
2022-11-17T13:10:30.745Z,20.90
2022-11-17T13:13:24.203Z,20.90
2022-11-17T13:16:01.756Z,20.80
2022-11-17T13:18:37.817Z,20.80
2022-11-17T13:21:32.218Z,20.80
2022-11-17T13:24:03.063Z,20.80
2022-11-17T13:26:40.441Z,20.70
2022-11-17T13:29:20.804Z,20.70
2022-11-17T13:31:50.963Z,20.70
2022-11-17T13:34:23.846Z,20.70
2022-11-17T13:37:03.391Z,20.70
2022-11-17T13:39:33.694Z,20.70
2022-11-17T13:42:06.293Z,20.60
2022-11-17T13:44:37.288Z,20.60
2022-11-17T13:47:41.195Z,20.60
2022-11-17T13:50:43.627Z,20.60
2022-11-17T13:53:13.775Z,20.60
2022-11-17T13:55:50.284Z,20.50
2022-11-17T13:58:32.071Z,20.50
2022-11-17T14:01:02.672Z,20.50
2022-11-17T14:03:40.511Z,20.50
2022-11-17T14:06:13.620Z,20.50
2022-11-17T14:08:46.002Z,20.40
2022-11-17T14:11:18.358Z,20.50
2022-11-17T14:13:54.488Z,20.40
2022-11-17T14:16:29.310Z,20.40
2022-11-17T14:19:06.324Z,20.40
2022-11-17T14:21:36.823Z,20.40
2022-11-17T14:24:14.590Z,20.40
2022-11-17T14:26:47.002Z,20.40
2022-11-17T14:29:18.100Z,20.40
2022-11-17T14:31:48.375Z,20.30
2022-11-17T14:34:18.829Z,20.30
2022-11-17T14:36:56.130Z,20.30
2022-11-17T14:39:26.327Z,20.30
2022-11-17T14:41:56.666Z,20.20
2022-11-17T14:44:26.890Z,20.20
2022-11-17T14:46:57.047Z,20.20
2022-11-17T14:49:27.266Z,20.20
2022-11-17T14:52:00.750Z,20.20
2022-11-17T14:54:30.969Z,20.20
2022-11-17T14:57:01.187Z,20.20
2022-11-17T14:59:31.398Z,20.10
2022-11-17T15:02:01.680Z,20.10
2022-11-17T15:04:50.036Z,20.10
2022-11-17T15:07:21.396Z,20.10
2022-11-17T15:09:51.641Z,20.10
2022-11-17T15:12:22.128Z,20.10
2022-11-17T15:14:52.744Z,20.00
2022-11-17T15:17:22.939Z,20.00
2022-11-17T15:19:53.572Z,20.00
2022-11-17T15:22:24.050Z,20.00
2022-11-17T15:24:54.394Z,20.00
2022-11-17T15:27:25.400Z,20.00
2022-11-17T15:29:55.695Z,20.00
2022-11-17T15:32:25.924Z,20.00
2022-11-17T15:34:56.162Z,19.90
2022-11-17T15:37:26.672Z,19.90
2022-11-17T15:39:56.905Z,19.90
2022-11-17T15:42:27.134Z,19.90
2022-11-17T15:44:57.342Z,19.90
2022-11-17T15:47:27.572Z,19.90
2022-11-17T15:50:00.185Z,19.80
2022-11-17T15:52:56.797Z,19.80
2022-11-17T15:55:20.621Z,19.80
2022-11-17T15:57:54.446Z,19.80
2022-11-17T16:00:24.727Z,19.80
2022-11-17T16:02:58.596Z,19.80
2022-11-17T16:05:29.239Z,19.70
2022-11-17T16:07:59.524Z,19.70
2022-11-17T16:10:29.854Z,19.70
2022-11-17T16:13:00.185Z,19.70
2022-11-17T16:15:30.623Z,19.70
2022-11-17T16:18:00.939Z,19.70
2022-11-17T16:20:31.272Z,19.70
2022-11-17T16:23:01.544Z,19.60
2022-11-17T16:25:31.801Z,19.60
2022-11-17T16:28:02.219Z,19.60
2022-11-17T16:30:35.483Z,19.60
2022-11-17T16:33:11.492Z,19.60
2022-11-17T16:35:43.254Z,19.60
2022-11-17T16:38:28.879Z,19.60
2022-11-17T16:41:05.683Z,19.50
2022-11-17T16:43:38.996Z,19.50
2022-11-17T16:46:28.711Z,19.50
2022-11-17T16:49:02.440Z,19.50
2022-11-17T16:51:33.205Z,19.50
2022-11-17T16:54:06.772Z,19.50
2022-11-17T16:56:37.579Z,19.40
2022-11-17T16:59:07.936Z,19.40
2022-11-17T17:01:38.194Z,19.40
2022-11-17T17:04:11.152Z,19.40
2022-11-17T17:06:46.408Z,19.40
2022-11-17T17:09:18.749Z,19.40
2022-11-17T17:11:52.070Z,19.40
2022-11-17T17:14:22.337Z,19.40
2022-11-17T17:16:52.565Z,19.30
2022-11-17T17:19:23.078Z,19.30
2022-11-17T17:21:53.558Z,19.30
2022-11-17T17:24:23.779Z,19.30
2022-11-17T17:26:54.089Z,19.30
2022-11-17T17:29:24.527Z,19.30
2022-11-17T17:31:54.770Z,19.30
2022-11-17T17:34:25.133Z,19.30
2022-11-17T17:36:55.325Z,19.20
2022-11-17T17:39:26.809Z,19.20
2022-11-17T17:41:57.038Z,19.20
2022-11-17T17:44:27.195Z,19.20
2022-11-17T17:46:59.483Z,19.20
2022-11-17T17:49:29.807Z,19.10
2022-11-17T17:52:00.088Z,19.20
2022-11-17T17:54:30.317Z,19.10
2022-11-17T17:57:00.809Z,19.10
2022-11-17T17:59:30.998Z,19.10
2022-11-17T18:02:01.278Z,19.10
2022-11-17T18:04:31.548Z,19.10
2022-11-17T18:07:03.168Z,19.10
2022-11-17T18:09:33.484Z,19.00
2022-11-17T18:12:03.720Z,19.10
2022-11-17T18:14:33.930Z,19.00
2022-11-17T18:17:04.180Z,19.00
2022-11-17T18:19:34.368Z,19.00
2022-11-17T18:22:04.785Z,19.00
2022-11-17T18:24:35.092Z,19.00
2022-11-17T18:27:05.339Z,19.00
2022-11-17T18:29:36.200Z,19.00
2022-11-17T18:32:06.582Z,18.90
2022-11-17T18:34:36.861Z,18.90
2022-11-17T18:37:07.270Z,18.90
2022-11-17T18:39:37.472Z,18.90
2022-11-17T18:42:07.944Z,18.90
2022-11-17T18:44:38.173Z,18.90
2022-11-17T18:47:08.395Z,18.90
2022-11-17T18:49:38.633Z,18.90
2022-11-17T18:52:09.459Z,18.90
2022-11-17T18:54:40.800Z,18.80
2022-11-17T18:57:11.058Z,18.80
2022-11-17T18:59:41.245Z,18.80
2022-11-17T19:02:11.903Z,18.80
2022-11-17T19:04:42.207Z,18.80
2022-11-17T19:07:12.510Z,18.80
2022-11-17T19:09:42.750Z,18.80
2022-11-17T19:12:13.060Z,18.80
2022-11-17T19:14:43.280Z,18.80
2022-11-17T19:17:13.547Z,18.80
2022-11-17T19:19:43.765Z,18.70
2022-11-17T19:22:14.021Z,18.70
2022-11-17T19:24:45.544Z,18.70
2022-11-17T19:27:15.872Z,18.70
2022-11-17T19:29:46.141Z,18.70
2022-11-17T19:32:16.438Z,18.70
2022-11-17T19:34:46.606Z,18.60
2022-11-17T19:37:16.901Z,18.60
2022-11-17T19:39:47.241Z,18.60
2022-11-17T19:42:17.476Z,18.60
2022-11-17T19:44:47.689Z,18.60
2022-11-17T19:47:18.046Z,18.60
2022-11-17T19:49:48.301Z,18.60
2022-11-17T19:52:18.576Z,18.60
2022-11-17T19:54:48.854Z,18.50
2022-11-17T19:57:19.230Z,18.50
2022-11-17T19:59:49.946Z,18.50
2022-11-17T20:02:20.262Z,18.50
2022-11-17T20:04:50.517Z,18.50
2022-11-17T20:07:21.178Z,18.50
2022-11-17T20:09:51.712Z,18.40
2022-11-17T20:12:22.225Z,18.40
2022-11-17T20:14:59.090Z,18.40
2022-11-17T20:17:29.448Z,18.40
2022-11-17T20:19:59.618Z,18.40
2022-11-17T20:22:29.916Z,18.50
2022-11-17T20:25:03.465Z,18.50
2022-11-17T20:27:34.209Z,18.60
2022-11-17T20:30:04.455Z,18.60
2022-11-17T20:32:37.117Z,18.70
2022-11-17T20:35:07.637Z,18.70
2022-11-17T20:37:37.880Z,18.70
2022-11-17T20:40:08.677Z,18.80
2022-11-17T20:42:38.944Z,18.80
2022-11-17T20:45:09.688Z,18.80
2022-11-17T20:47:40.015Z,18.80
2022-11-17T20:50:10.588Z,18.80
2022-11-17T20:52:41.588Z,18.90
2022-11-17T20:55:11.936Z,18.90
2022-11-17T20:57:42.114Z,18.90
2022-11-17T21:00:12.973Z,18.90
2022-11-17T21:02:43.240Z,18.90
2022-11-17T21:05:13.482Z,18.90
2022-11-17T21:07:43.771Z,19.00
2022-11-17T21:10:14.075Z,18.90
2022-11-17T21:12:44.348Z,19.00
2022-11-17T21:15:14.783Z,19.00
2022-11-17T21:18:02.896Z,19.00
2022-11-17T21:20:33.182Z,19.10
2022-11-17T21:23:03.468Z,19.10
2022-11-17T21:25:33.597Z,19.10
2022-11-17T21:28:03.768Z,19.10
2022-11-17T21:30:36.811Z,19.20
2022-11-17T21:33:07.112Z,19.20
2022-11-17T21:35:37.370Z,19.20
2022-11-17T21:38:07.737Z,19.30
2022-11-17T21:40:37.957Z,19.30
2022-11-17T21:43:08.194Z,19.30
2022-11-17T21:45:38.421Z,19.30
2022-11-17T21:48:08.896Z,19.40
2022-11-17T21:50:39.148Z,19.40
2022-11-17T21:53:09.406Z,19.40
2022-11-17T21:55:40.392Z,19.40
2022-11-17T21:58:10.642Z,19.40
2022-11-17T22:00:41.533Z,19.40
2022-11-17T22:03:11.922Z,19.50
2022-11-17T22:05:42.185Z,19.50
2022-11-17T22:08:13.070Z,19.50
2022-11-17T22:10:43.276Z,19.50
2022-11-17T22:13:14.314Z,19.50
2022-11-17T22:15:44.543Z,19.60
2022-11-17T22:18:14.849Z,19.60
2022-11-17T22:20:45.062Z,19.60
2022-11-17T22:23:15.397Z,19.60
2022-11-17T22:25:46.066Z,19.60
2022-11-17T22:28:16.444Z,19.60
2022-11-17T22:30:47.863Z,19.70
2022-11-17T22:33:18.255Z,19.70
2022-11-17T22:35:48.973Z,19.70
2022-11-17T22:38:19.713Z,19.70
2022-11-17T22:40:50.585Z,19.70
2022-11-17T22:43:20.826Z,19.70
2022-11-17T22:45:51.899Z,19.70
2022-11-17T22:48:22.262Z,19.70
2022-11-17T22:50:52.805Z,19.80
2022-11-17T22:53:23.065Z,19.80
2022-11-17T22:55:53.511Z,19.80
2022-11-17T22:58:23.747Z,19.80
2022-11-17T23:00:55.456Z,19.80
2022-11-17T23:03:27.040Z,19.90
2022-11-17T23:05:57.343Z,19.90
2022-11-17T23:08:30.832Z,19.90
2022-11-17T23:11:34.992Z,19.90
2022-11-17T23:13:56.297Z,20.00
2022-11-17T23:16:26.843Z,20.00
2022-11-17T23:18:58.359Z,19.90
2022-11-17T23:21:28.679Z,20.00
2022-11-17T23:23:58.997Z,20.00
2022-11-17T23:26:29.685Z,20.00
2022-11-17T23:28:59.967Z,20.00
2022-11-17T23:31:30.284Z,20.00
2022-11-17T23:34:00.677Z,20.10
2022-11-17T23:36:30.880Z,20.10
2022-11-17T23:39:01.071Z,20.10
2022-11-17T23:41:31.346Z,20.10
2022-11-17T23:44:01.562Z,20.10
2022-11-17T23:46:31.746Z,20.20
2022-11-17T23:49:02.020Z,20.20
2022-11-17T23:51:32.313Z,20.20
2022-11-17T23:54:04.453Z,20.20
2022-11-17T23:56:36.888Z,20.20
2022-11-17T23:59:09.773Z,20.20
